Time;durP1;ratioP1;P1;durP2;ratioP2;P2;SDS_P1;SDS_P2;PMS_P1;PMS_P2;Temp;Humidity;BMP_temperature;BMP_pressure;BME280_temperature;BME280_humidity;BME280_pressure;Samples;Min_cycle;Max_cycle;Signal;HPM_P1;HPM_P2
2021/12/24 00:00:20;;;;;;;146.23;53.88;;;8.80;99.90;;;;;;5079996;28;20021;-79
2021/12/24 00:02:47;;;;;;;128.25;53.60;;;8.90;99.90;;;;;;5081976;28;20037;-79
2021/12/24 00:05:13;;;;;;;129.65;53.42;;;8.90;99.90;;;;;;5084177;28;20468;-79
2021/12/24 00:07:39;;;;;;;142.13;54.40;;;8.90;99.90;;;;;;5087065;28;20035;-79
2021/12/24 00:10:08;;;;;;;157.00;58.35;;;8.90;99.90;;;;;;5082184;28;20056;-79
2021/12/24 00:12:37;;;;;;;133.43;53.92;;;9.00;99.90;;;;;;5090005;28;20545;-79
2021/12/24 00:15:16;;;;;;;161.63;58.50;;;9.00;99.90;;;;;;5079097;28;20016;-78
2021/12/24 00:17:42;;;;;;;151.65;56.25;;;9.00;99.90;;;;;;5083416;28;20031;-79
2021/12/24 00:21:19;;;;;;;152.30;57.28;;;9.10;99.90;;;;;;5079649;28;20021;-79
2021/12/24 00:36:34;;;;;;;141.60;53.72;;;9.10;99.90;;;;;;5081395;28;20034;-79
2021/12/24 00:38:59;;;;;;;152.77;56.28;;;9.10;99.90;;;;;;5081346;28;20387;-79
2021/12/24 00:41:25;;;;;;;147.40;57.35;;;9.00;99.90;;;;;;5086339;28;20020;-79
2021/12/24 00:43:51;;;;;;;152.10;59.53;;;9.00;99.90;;;;;;5080806;28;20028;-79
2021/12/24 00:46:16;;;;;;;147.43;58.35;;;9.10;99.90;;;;;;5086282;28;20431;-79
2021/12/24 00:48:42;;;;;;;154.50;60.95;;;9.10;99.90;;;;;;5089088;28;20492;-79
2021/12/24 00:51:20;;;;;;;157.10;60.92;;;9.10;99.90;;;;;;5089140;28;20369;-78
2021/12/24 00:56:15;;;;;;;167.02;64.68;;;9.20;99.90;;;;;;5081590;28;20032;-79
2021/12/24 00:58:43;;;;;;;152.30;59.03;;;9.20;99.90;;;;;;5085767;28;20123;-79
2021/12/24 01:01:12;;;;;;;173.27;65.22;;;9.30;99.90;;;;;;5087901;28;20036;-79
2021/12/24 01:03:38;;;;;;;169.77;63.65;;;9.30;99.90;;;;;;5082763;28;20079;-79
2021/12/24 01:06:04;;;;;;;168.45;61.92;;;9.20;99.90;;;;;;5084845;28;20039;-79
2021/12/24 01:08:30;;;;;;;155.80;60.35;;;9.30;99.90;;;;;;5088160;28;20024;-79
2021/12/24 01:10:59;;;;;;;156.85;60.28;;;9.30;99.90;;;;;;5079610;28;20052;-79
2021/12/24 01:13:26;;;;;;;189.43;81.60;;;9.30;99.90;;;;;;5083729;28;20114;-79
2021/12/24 01:16:00;;;;;;;137.27;55.25;;;9.30;99.90;;;;;;5084349;28;20553;-79
2021/12/24 01:23:50;;;;;;;161.32;58.63;;;9.30;99.90;;;;;;5082360;28;20003;-79
2021/12/24 01:26:34;;;;;;;156.68;64.47;;;9.30;99.90;;;;;;5085060;28;20020;-79
2021/12/24 01:29:21;;;;;;;152.60;60.47;;;9.30;99.90;;;;;;5086027;28;20563;-78
2021/12/24 01:40:21;;;;;;;157.95;58.80;;;9.40;99.90;;;;;;5079314;28;20448;-79
2021/12/24 01:42:49;;;;;;;152.10;57.95;;;9.40;99.90;;;;;;5079603;28;20499;-79
2021/12/24 01:45:14;;;;;;;143.13;59.85;;;9.40;99.90;;;;;;5082105;28;20031;-79
2021/12/24 01:47:40;;;;;;;158.90;61.70;;;9.40;99.90;;;;;;5085647;28;20028;-79
2021/12/24 01:50:06;;;;;;;139.18;56.15;;;9.40;99.90;;;;;;5082328;28;20058;-79
2021/12/24 01:52:32;;;;;;;149.38;59.60;;;9.40;99.90;;;;;;5083082;28;20031;-79
2021/12/24 01:54:57;;;;;;;143.68;58.83;;;9.50;99.90;;;;;;5086221;28;20032;-79
2021/12/24 01:57:26;;;;;;;145.13;61.33;;;9.50;99.90;;;;;;5082168;28;20039;-81
2021/12/24 01:59:52;;;;;;;147.02;60.72;;;9.60;99.90;;;;;;5081185;28;20158;-79
2021/12/24 02:02:18;;;;;;;142.55;59.85;;;9.50;99.90;;;;;;5087366;28;20031;-81
2021/12/24 02:04:43;;;;;;;146.93;58.83;;;9.50;99.90;;;;;;5081060;28;20032;-79
2021/12/24 02:07:12;;;;;;;144.43;58.55;;;9.60;99.90;;;;;;5084634;28;20032;-81
2021/12/24 02:09:37;;;;;;;141.05;59.95;;;9.60;99.90;;;;;;5093769;28;20020;-81
2021/12/24 02:12:06;;;;;;;155.90;62.63;;;9.50;99.90;;;;;;5085984;28;20035;-79
2021/12/24 02:14:36;;;;;;;142.50;56.65;;;9.60;99.90;;;;;;5086793;28;20089;-79
2021/12/24 02:17:28;;;;;;;146.77;58.40;;;9.60;99.90;;;;;;5081802;28;20031;-80
2021/12/24 02:29:06;;;;;;;126.95;53.05;;;9.60;99.90;;;;;;5085098;28;20074;-80
2021/12/24 02:31:01;;;;;;;120.60;52.97;;;9.60;99.90;;;;;;5071739;28;20052;-79
2021/12/24 02:33:27;;;;;;;136.27;55.03;;;9.50;99.90;;;;;;5083115;28;20042;-79
2021/12/24 02:35:53;;;;;;;150.32;58.95;;;9.50;99.90;;;;;;5083807;28;20043;-79
2021/12/24 02:38:19;;;;;;;130.82;55.40;;;9.50;99.90;;;;;;5082544;28;20017;-79
2021/12/24 02:40:46;;;;;;;139.32;56.13;;;9.60;99.90;;;;;;5081429;28;20028;-79
2021/12/24 02:43:15;;;;;;;138.38;57.85;;;9.60;99.90;;;;;;5083631;28;20067;-79
2021/12/24 02:45:43;;;;;;;135.70;55.80;;;9.60;99.90;;;;;;5087762;28;20024;-79
2021/12/24 02:53:56;;;;;;;142.13;56.83;;;9.60;99.90;;;;;;5085037;28;20515;-79
2021/12/24 02:56:25;;;;;;;130.77;57.85;;;9.60;99.90;;;;;;5076946;28;20123;-79
2021/12/24 02:58:51;;;;;;;125.25;51.47;;;9.60;99.90;;;;;;5083563;28;20631;-78
2021/12/24 03:01:20;;;;;;;129.48;51.92;;;9.60;99.90;;;;;;5084890;28;20034;-79
2021/12/24 03:03:48;;;;;;;122.95;51.65;;;9.60;99.90;;;;;;5084013;28;20024;-80
2021/12/24 03:06:15;;;;;;;115.95;51.65;;;9.60;99.90;;;;;;5081193;28;20031;-79
2021/12/24 03:08:40;;;;;;;126.55;51.28;;;9.60;99.90;;;;;;5084049;28;20035;-79
2021/12/24 03:11:07;;;;;;;129.52;56.55;;;9.60;99.90;;;;;;5081241;28;20040;-79
2021/12/24 03:13:34;;;;;;;121.43;53.60;;;9.60;99.90;;;;;;5080568;28;20040;-79
2021/12/24 03:16:00;;;;;;;122.53;51.08;;;9.70;99.90;;;;;;5076533;28;20020;-78
2021/12/24 03:18:31;;;;;;;117.07;52.17;;;9.70;99.90;;;;;;5080319;28;20028;-78
2021/12/24 03:21:06;;;;;;;123.20;50.42;;;9.70;99.90;;;;;;5078931;28;20077;-79
2021/12/24 03:23:45;;;;;;;105.57;45.10;;;9.60;99.90;;;;;;5081930;28;20063;-79
2021/12/24 03:26:14;;;;;;;118.65;47.53;;;9.60;99.90;;;;;;5086656;28;20484;-79
2021/12/24 03:28:42;;;;;;;110.88;48.63;;;9.70;99.90;;;;;;5079494;28;20532;-79
2021/12/24 03:31:08;;;;;;;114.90;48.75;;;9.70;99.90;;;;;;5079524;28;20396;-79
2021/12/24 03:33:36;;;;;;;117.80;47.85;;;9.70;99.90;;;;;;5076881;28;20074;-78
2021/12/24 03:36:06;;;;;;;112.70;49.55;;;9.70;99.90;;;;;;5084739;28;20043;-79
2021/12/24 03:38:33;;;;;;;113.20;47.40;;;9.80;99.90;;;;;;5081439;28;20029;-79
2021/12/24 03:40:59;;;;;;;115.05;47.63;;;9.70;99.90;;;;;;5087170;28;20519;-79
2021/12/24 03:43:26;;;;;;;118.03;46.78;;;9.70;99.90;;;;;;5083451;28;20020;-79
2021/12/24 03:48:23;;;;;;;111.07;47.25;;;9.70;99.90;;;;;;5079609;28;20046;-79
2021/12/24 03:56:02;;;;;;;119.10;47.63;;;9.80;99.90;;;;;;5085064;28;20502;-78
2021/12/24 03:58:28;;;;;;;115.97;46.03;;;9.80;99.90;;;;;;5080248;28;20028;-79
2021/12/24 04:00:53;;;;;;;102.03;44.55;;;9.70;99.90;;;;;;5086700;28;20039;-78
2021/12/24 04:03:19;;;;;;;101.88;44.45;;;9.70;99.90;;;;;;5085908;28;20089;-78
2021/12/24 04:05:46;;;;;;;105.60;46.17;;;9.70;99.90;;;;;;5085701;28;20024;-79
2021/12/24 04:08:12;;;;;;;112.25;45.63;;;9.80;99.90;;;;;;5080736;28;20077;-78
2021/12/24 04:10:41;;;;;;;114.65;49.00;;;9.70;99.90;;;;;;5082248;28;20020;-78
2021/12/24 04:13:08;;;;;;;115.30;47.75;;;9.80;99.90;;;;;;5085521;28;20036;-79
2021/12/24 04:15:35;;;;;;;111.13;49.05;;;9.80;99.90;;;;;;5083380;28;20086;-79
2021/12/24 04:18:11;;;;;;;112.10;46.75;;;9.90;99.90;;;;;;5083634;28;20025;-79
2021/12/24 04:26:05;;;;;;;114.28;47.85;;;9.80;99.90;;;;;;5083956;28;20032;-79
2021/12/24 04:28:30;;;;;;;103.55;46.15;;;9.80;99.90;;;;;;5084419;28;20227;-79
2021/12/24 04:30:56;;;;;;;102.30;48.13;;;9.90;99.90;;;;;;5081008;28;20032;-79
2021/12/24 04:33:31;;;;;;;105.30;46.88;;;9.90;99.90;;;;;;5083078;28;20400;-79
2021/12/24 04:36:13;;;;;;;106.95;47.65;;;9.90;99.90;;;;;;5082307;28;20035;-80
2021/12/24 04:51:04;;;;;;;113.93;46.67;;;9.90;99.90;;;;;;5081163;28;20035;-79
2021/12/24 05:03:42;;;;;;;105.78;45.67;;;10.00;99.90;;;;;;5076519;28;20055;-79
2021/12/24 05:06:14;;;;;;;104.50;43.10;;;10.00;99.90;;;;;;5077412;28;20032;-79
2021/12/24 05:11:19;;;;;;;95.97;42.88;;;9.90;99.90;;;;;;5078278;28;20070;-79
2021/12/24 05:13:45;;;;;;;95.22;41.88;;;9.90;99.90;;;;;;5081694;28;21128;-79
2021/12/24 05:21:33;;;;;;;91.38;41.15;;;9.90;99.90;;;;;;5079646;28;20473;-79
2021/12/24 05:24:00;;;;;;;83.32;39.10;;;10.00;99.90;;;;;;5076814;28;20452;-78
2021/12/24 05:26:25;;;;;;;105.05;43.80;;;9.90;99.90;;;;;;5076481;28;20065;-78
2021/12/24 05:28:51;;;;;;;96.50;40.35;;;10.00;99.90;;;;;;5077973;28;20033;-78
2021/12/24 05:31:20;;;;;;;89.93;40.05;;;10.00;99.90;;;;;;5077203;28;20028;-76
2021/12/24 05:33:46;;;;;;;105.18;42.85;;;10.00;99.90;;;;;;5076946;28;20029;-76
2021/12/24 05:36:11;;;;;;;91.03;39.75;;;10.10;99.90;;;;;;5079345;28;20032;-76
2021/12/24 05:38:37;;;;;;;98.00;40.30;;;10.00;99.90;;;;;;5080964;28;20461;-76
2021/12/24 05:41:03;;;;;;;91.25;41.35;;;10.00;99.90;;;;;;5082805;28;20024;-76
2021/12/24 05:43:29;;;;;;;100.13;41.25;;;10.00;99.90;;;;;;5082061;28;20020;-76
2021/12/24 05:45:55;;;;;;;91.70;40.10;;;10.10;99.90;;;;;;5083381;28;20408;-77
2021/12/24 05:48:20;;;;;;;93.22;39.88;;;10.10;99.90;;;;;;5081296;28;20056;-76
2021/12/24 05:50:46;;;;;;;89.70;40.65;;;10.00;99.90;;;;;;5082649;28;20024;-76
2021/12/24 05:53:12;;;;;;;82.75;39.08;;;10.00;99.90;;;;;;5081177;28;20028;-76
2021/12/24 05:55:38;;;;;;;92.30;38.80;;;10.00;99.90;;;;;;5081623;28;20491;-76
2021/12/24 05:58:07;;;;;;;95.60;40.10;;;10.00;99.90;;;;;;5081509;28;20045;-72
2021/12/24 06:00:38;;;;;;;91.20;42.95;;;10.00;99.90;;;;;;5083125;28;20017;-76
2021/12/24 06:03:08;;;;;;;92.78;41.95;;;10.10;99.90;;;;;;5082247;28;20046;-76
2021/12/24 06:05:35;;;;;;;95.55;41.72;;;10.10;99.90;;;;;;5087508;28;20028;-76
2021/12/24 06:08:01;;;;;;;91.15;38.15;;;10.00;99.90;;;;;;5087248;28;20111;-76
2021/12/24 06:10:26;;;;;;;88.55;39.58;;;10.10;99.90;;;;;;5088490;28;20060;-76
2021/12/24 06:12:52;;;;;;;87.63;38.40;;;10.10;99.90;;;;;;5075975;28;20085;-77
2021/12/24 06:15:23;;;;;;;96.90;38.67;;;10.00;99.90;;;;;;5082336;28;20032;-76
2021/12/24 06:17:51;;;;;;;93.55;37.97;;;10.00;99.90;;;;;;5078883;28;20024;-76
2021/12/24 06:20:18;;;;;;;83.03;35.53;;;10.00;99.90;;;;;;5081099;28;20028;-76
2021/12/24 06:22:43;;;;;;;97.82;38.20;;;10.00;99.90;;;;;;5081607;28;20460;-77
2021/12/24 06:25:09;;;;;;;83.15;36.15;;;10.00;99.90;;;;;;5078906;28;20074;-76
2021/12/24 06:27:35;;;;;;;85.82;37.42;;;10.00;99.90;;;;;;5081730;28;20032;-77
2021/12/24 06:30:02;;;;;;;86.15;35.38;;;10.10;99.90;;;;;;5079971;28;20457;-76
2021/12/24 06:32:27;;;;;;;82.90;33.13;;;10.00;99.90;;;;;;5082537;28;20036;-76
2021/12/24 06:34:53;;;;;;;81.85;33.90;;;10.00;99.90;;;;;;5083473;28;20036;-76
2021/12/24 06:37:19;;;;;;;77.35;33.92;;;10.00;99.90;;;;;;5078639;28;20017;-77
2021/12/24 06:39:45;;;;;;;80.63;33.53;;;10.00;99.90;;;;;;5081638;28;20025;-76
2021/12/24 06:42:10;;;;;;;77.30;32.95;;;10.00;99.90;;;;;;5077821;28;20115;-76
2021/12/24 06:44:37;;;;;;;85.93;35.88;;;10.00;99.90;;;;;;5083368;28;20107;-76
2021/12/24 06:47:04;;;;;;;84.18;33.38;;;10.00;99.90;;;;;;5079830;28;20135;-77
2021/12/24 06:49:30;;;;;;;80.45;34.33;;;10.00;99.90;;;;;;5080827;28;20028;-76
2021/12/24 06:51:55;;;;;;;75.05;33.03;;;10.10;99.90;;;;;;5086904;28;20464;-76
2021/12/24 06:54:21;;;;;;;76.38;32.72;;;10.10;99.90;;;;;;5077079;28;20032;-76
2021/12/24 06:56:47;;;;;;;77.68;34.00;;;10.00;99.90;;;;;;5079431;28;20027;-77
2021/12/24 06:59:13;;;;;;;85.35;36.47;;;10.00;99.90;;;;;;5083016;28;20028;-76
2021/12/24 07:01:39;;;;;;;83.47;34.00;;;10.10;99.90;;;;;;5077698;28;20033;-76
2021/12/24 07:04:05;;;;;;;84.95;34.13;;;10.00;99.90;;;;;;5082340;28;20063;-77
2021/12/24 07:06:31;;;;;;;81.53;36.53;;;10.00;99.90;;;;;;5074079;28;20027;-77
2021/12/24 07:08:57;;;;;;;83.93;35.78;;;10.00;99.90;;;;;;5081042;28;20025;-77
2021/12/24 07:11:24;;;;;;;80.32;33.75;;;10.00;99.90;;;;;;5084515;28;20486;-76
2021/12/24 07:13:50;;;;;;;83.47;35.22;;;10.00;99.90;;;;;;5080235;28;20495;-77
2021/12/24 07:16:16;;;;;;;78.85;34.40;;;10.00;99.90;;;;;;5086274;28;20034;-76
2021/12/24 07:18:41;;;;;;;81.38;34.88;;;10.00;99.90;;;;;;5080230;28;20468;-77
2021/12/24 07:21:07;;;;;;;86.05;33.65;;;10.00;99.90;;;;;;5081220;28;20026;-76
2021/12/24 07:23:33;;;;;;;77.97;32.65;;;10.10;99.90;;;;;;5085534;28;20112;-77
2021/12/24 07:25:59;;;;;;;80.25;35.13;;;10.10;99.90;;;;;;5087574;28;20017;-76
2021/12/24 07:28:25;;;;;;;90.40;35.00;;;10.10;99.90;;;;;;5081766;28;20025;-76
2021/12/24 07:30:51;;;;;;;76.50;32.22;;;10.00;99.90;;;;;;5089688;28;20228;-76
2021/12/24 07:33:17;;;;;;;79.13;32.10;;;10.10;99.90;;;;;;5082279;28;20040;-76
2021/12/24 07:35:44;;;;;;;81.20;34.13;;;10.10;99.90;;;;;;5083472;28;20043;-76
2021/12/24 07:38:13;;;;;;;74.43;29.63;;;10.10;99.90;;;;;;5085264;28;20029;-76
2021/12/24 07:40:40;;;;;;;77.80;29.88;;;10.10;99.90;;;;;;5086139;28;20119;-76
2021/12/24 07:43:06;;;;;;;75.38;29.35;;;10.10;99.90;;;;;;5084503;28;20024;-76
2021/12/24 07:45:32;;;;;;;73.63;28.85;;;10.10;99.90;;;;;;5087566;28;20035;-76
2021/12/24 07:48:32;;;;;;;68.65;28.95;;;10.10;99.90;;;;;;5084445;28;20024;-77
2021/12/24 07:53:16;;;;;;;65.35;27.17;;;10.10;99.90;;;;;;5083756;28;20037;-76
2021/12/24 07:55:43;;;;;;;68.28;28.38;;;10.00;99.90;;;;;;5090545;28;20024;-77
2021/12/24 07:58:10;;;;;;;74.93;30.20;;;10.00;99.90;;;;;;5081608;28;20032;-77
2021/12/24 08:00:37;;;;;;;68.70;27.42;;;10.00;99.90;;;;;;5086019;28;20413;-76
2021/12/24 08:03:03;;;;;;;72.07;30.45;;;10.00;99.90;;;;;;5082630;28;20064;-77
2021/12/24 08:05:32;;;;;;;71.72;30.55;;;10.00;99.90;;;;;;5085825;28;20407;-77
2021/12/24 08:07:58;;;;;;;68.88;28.13;;;10.00;99.90;;;;;;5081714;28;20031;-77
2021/12/24 08:10:25;;;;;;;65.03;28.02;;;10.10;99.90;;;;;;5083827;28;20025;-77
2021/12/24 08:12:51;;;;;;;67.32;26.58;;;10.10;99.90;;;;;;5085321;28;20028;-77
2021/12/24 08:15:18;;;;;;;60.25;27.75;;;10.10;99.90;;;;;;5084636;28;20039;-77
2021/12/24 08:17:44;;;;;;;75.13;29.33;;;10.10;99.90;;;;;;5080815;28;20028;-77
2021/12/24 08:20:11;;;;;;;70.88;30.10;;;10.10;99.90;;;;;;5084834;28;20492;-76
2021/12/24 08:22:37;;;;;;;68.55;29.80;;;10.20;99.90;;;;;;5083521;28;20048;-78
2021/12/24 08:25:05;;;;;;;70.38;29.58;;;10.10;99.90;;;;;;5080150;28;20025;-78
2021/12/24 08:27:31;;;;;;;74.32;29.38;;;10.10;99.90;;;;;;5081858;28;20020;-78
2021/12/24 08:29:57;;;;;;;70.03;29.73;;;10.10;99.90;;;;;;5083389;28;20036;-77
2021/12/24 08:32:23;;;;;;;70.70;29.30;;;10.10;99.90;;;;;;5082008;28;20049;-78
2021/12/24 08:34:51;;;;;;;84.03;30.65;;;10.10;99.90;;;;;;5084269;28;20095;-78
2021/12/24 08:37:17;;;;;;;74.40;29.27;;;10.10;99.90;;;;;;5085407;28;20024;-78
2021/12/24 08:39:42;;;;;;;68.70;28.23;;;10.10;99.90;;;;;;5084027;28;20055;-78
2021/12/24 08:42:08;;;;;;;65.32;27.92;;;10.10;99.90;;;;;;5092107;28;20025;-77
2021/12/24 08:44:35;;;;;;;72.07;29.10;;;10.10;99.90;;;;;;5091209;28;20038;-77
2021/12/24 08:47:01;;;;;;;81.20;32.30;;;10.00;99.90;;;;;;5087913;28;20391;-77
2021/12/24 08:49:27;;;;;;;72.55;29.25;;;10.10;99.90;;;;;;5085971;28;20023;-77
2021/12/24 08:51:53;;;;;;;72.53;28.27;;;10.10;99.90;;;;;;5084812;28;20383;-78
2021/12/24 08:54:21;;;;;;;75.80;28.50;;;10.10;99.90;;;;;;5085844;28;20452;-76
2021/12/24 08:56:48;;;;;;;68.45;30.30;;;10.20;99.90;;;;;;5082209;28;20021;-77
2021/12/24 08:59:14;;;;;;;62.35;26.70;;;10.20;99.90;;;;;;5083281;28;20035;-77
2021/12/24 09:01:42;;;;;;;69.55;29.38;;;10.10;99.90;;;;;;5084378;28;20021;-77
2021/12/24 09:04:09;;;;;;;70.00;29.52;;;10.20;99.90;;;;;;5087209;28;20032;-77
2021/12/24 09:06:35;;;;;;;73.32;29.73;;;10.20;99.90;;;;;;5079874;28;20492;-76
2021/12/24 09:09:00;;;;;;;72.85;29.40;;;10.20;99.90;;;;;;5086927;28;20032;-76
2021/12/24 09:11:26;;;;;;;65.30;29.73;;;10.30;99.90;;;;;;5090141;28;20020;-77
2021/12/24 09:13:52;;;;;;;72.80;30.45;;;10.30;99.90;;;;;;5080673;28;20048;-77
2021/12/24 09:16:18;;;;;;;74.30;29.73;;;10.30;99.90;;;;;;5083808;28;20508;-78
2021/12/24 09:18:44;;;;;;;73.40;29.38;;;10.30;99.90;;;;;;5082055;28;20036;-77
2021/12/24 09:21:15;;;;;;;72.82;31.02;;;10.40;99.90;;;;;;5081884;28;20051;-77
2021/12/24 09:23:44;;;;;;;71.82;29.15;;;10.40;99.90;;;;;;5079052;28;20021;-77
2021/12/24 09:26:09;;;;;;;70.47;30.60;;;10.40;99.90;;;;;;5078962;28;20020;-77
2021/12/24 09:28:35;;;;;;;74.10;31.00;;;10.40;99.90;;;;;;5081769;28;20031;-77
2021/12/24 09:31:01;;;;;;;67.43;31.17;;;10.40;99.90;;;;;;5077349;28;20033;-78
2021/12/24 09:33:26;;;;;;;64.30;30.38;;;10.40;99.90;;;;;;5081894;28;20036;-78
2021/12/24 09:35:52;;;;;;;66.07;31.13;;;10.30;99.90;;;;;;5083410;28;20389;-78
2021/12/24 09:38:18;;;;;;;76.32;32.03;;;10.30;99.90;;;;;;5081418;28;20037;-78
2021/12/24 09:40:43;;;;;;;65.00;26.75;;;10.30;99.90;;;;;;5079390;28;20020;-78
2021/12/24 09:43:09;;;;;;;71.45;29.20;;;10.40;99.90;;;;;;5084157;28;20028;-78
2021/12/24 09:45:35;;;;;;;63.83;27.60;;;10.40;99.90;;;;;;5080981;28;20099;-77
2021/12/24 09:48:00;;;;;;;74.00;28.17;;;10.40;99.90;;;;;;5082168;28;20063;-77
2021/12/24 09:50:28;;;;;;;66.32;28.30;;;10.40;99.90;;;;;;5078893;28;20020;-78
2021/12/24 09:52:54;;;;;;;68.57;29.83;;;10.40;99.90;;;;;;5083312;28;20449;-78
2021/12/24 09:55:26;;;;;;;73.18;28.33;;;10.50;99.90;;;;;;5084693;28;20070;-77
2021/12/24 09:57:52;;;;;;;80.85;30.63;;;10.50;99.90;;;;;;5084316;28;20520;-78
2021/12/24 10:00:21;;;;;;;68.18;27.73;;;10.50;99.90;;;;;;5078685;28;20465;-79
2021/12/24 10:02:51;;;;;;;65.85;28.17;;;10.50;99.90;;;;;;5074017;28;20074;-77
2021/12/24 10:05:27;;;;;;;70.53;27.80;;;10.50;99.90;;;;;;5081042;28;20028;-77
2021/12/24 10:08:19;;;;;;;63.55;29.38;;;10.50;99.90;;;;;;5081018;28;20040;-78
2021/12/24 10:10:50;;;;;;;71.63;32.30;;;10.50;99.90;;;;;;5083843;28;20031;-77
2021/12/24 10:13:43;;;;;;;66.85;29.95;;;10.60;99.90;;;;;;5077528;28;20107;-77
2021/12/24 10:16:21;;;;;;;72.65;30.15;;;10.70;99.90;;;;;;5078136;28;20063;-78
2021/12/24 10:18:48;;;;;;;75.07;33.17;;;10.70;99.90;;;;;;5079511;28;20024;-78
2021/12/24 10:21:18;;;;;;;63.58;29.23;;;10.70;99.90;;;;;;5081877;28;20121;-77
2021/12/24 10:23:51;;;;;;;64.07;32.35;;;10.60;99.90;;;;;;5087623;28;20020;-78
2021/12/24 10:26:21;;;;;;;70.88;30.17;;;10.60;99.90;;;;;;5077478;28;20028;-77
2021/12/24 10:29:10;;;;;;;56.58;29.67;;;10.70;99.90;;;;;;5081401;28;20021;-78
2021/12/24 10:31:38;;;;;;;64.72;31.55;;;10.60;99.90;;;;;;5084810;28;20032;-79
2021/12/24 10:34:10;;;;;;;66.60;31.77;;;10.70;99.90;;;;;;5077183;28;20036;-77
2021/12/24 10:37:09;;;;;;;65.38;29.50;;;10.70;99.90;;;;;;5079521;28;20115;-77
2021/12/24 10:39:47;;;;;;;59.72;30.42;;;10.70;99.90;;;;;;5074266;28;20041;-77
2021/12/24 10:42:35;;;;;;;67.47;31.25;;;10.70;99.90;;;;;;5084877;28;20056;-78
2021/12/24 10:45:04;;;;;;;66.55;29.30;;;10.60;99.90;;;;;;5080026;28;20469;-77
2021/12/24 10:47:33;;;;;;;64.90;28.67;;;10.60;99.90;;;;;;5080811;28;20027;-78
2021/12/24 10:52:57;;;;;;;62.00;28.13;;;10.60;99.90;;;;;;5078849;28;20044;-77
2021/12/24 10:55:31;;;;;;;60.22;27.83;;;10.60;99.90;;;;;;5082606;28;20353;-77
2021/12/24 10:57:59;;;;;;;57.63;26.98;;;10.60;99.90;;;;;;5084690;28;20115;-77
2021/12/24 11:00:33;;;;;;;65.07;28.10;;;10.60;99.90;;;;;;5083296;28;20024;-79
2021/12/24 11:03:02;;;;;;;60.58;30.48;;;10.50;99.90;;;;;;5080499;28;20064;-80
2021/12/24 11:05:41;;;;;;;55.95;28.45;;;10.60;99.90;;;;;;5081496;28;20031;-80
2021/12/24 11:08:27;;;;;;;62.22;29.17;;;10.60;99.90;;;;;;5079529;28;20044;-80
2021/12/24 11:10:59;;;;;;;55.95;29.08;;;10.60;99.90;;;;;;5083076;28;20032;-81
2021/12/24 11:13:44;;;;;;;69.60;29.30;;;10.50;99.90;;;;;;5080790;28;20378;-81
2021/12/24 11:16:16;;;;;;;81.47;33.03;;;10.60;99.90;;;;;;5082084;28;20190;-81
2021/12/24 11:18:47;;;;;;;62.03;31.55;;;10.60;99.90;;;;;;5078436;28;20488;-81
2021/12/24 11:21:26;;;;;;;62.42;32.58;;;10.70;99.90;;;;;;5089822;28;20089;-80
2021/12/24 11:23:52;;;;;;;62.83;30.27;;;10.70;99.90;;;;;;5072394;28;20028;-80
2021/12/24 11:26:27;;;;;;;58.22;30.15;;;10.70;99.90;;;;;;5079705;28;20044;-80
2021/12/24 11:28:54;;;;;;;59.55;29.50;;;10.70;99.90;;;;;;5083874;28;20016;-77
2021/12/24 11:31:28;;;;;;;57.25;29.45;;;10.70;99.90;;;;;;5080375;28;20048;-77
2021/12/24 11:33:54;;;;;;;60.72;29.85;;;10.70;99.90;;;;;;5079172;28;20048;-81
2021/12/24 11:36:23;;;;;;;58.40;28.52;;;10.80;99.90;;;;;;5079474;28;20016;-81
2021/12/24 11:38:54;;;;;;;52.25;28.65;;;10.70;99.90;;;;;;5078698;28;20024;-80
2021/12/24 11:41:23;;;;;;;56.60;29.88;;;10.80;99.90;;;;;;5077953;28;20078;-81
2021/12/24 11:43:50;;;;;;;60.55;30.48;;;10.80;99.90;;;;;;5078537;28;20031;-77
2021/12/24 11:46:18;;;;;;;53.45;28.20;;;10.90;99.90;;;;;;5077924;28;20024;-77
2021/12/24 11:48:47;;;;;;;59.70;31.05;;;10.80;99.90;;;;;;5080358;28;20472;-77
2021/12/24 11:51:19;;;;;;;52.28;26.42;;;10.90;99.90;;;;;;5069910;28;20013;-78
2021/12/24 11:53:47;;;;;;;58.07;27.83;;;10.80;99.90;;;;;;5080707;28;20111;-79
2021/12/24 11:56:16;;;;;;;54.90;28.08;;;10.80;99.90;;;;;;5080910;28;20124;-79
2021/12/24 11:58:49;;;;;;;50.58;28.25;;;10.80;99.90;;;;;;5079467;28;20423;-78
2021/12/24 12:01:18;;;;;;;58.75;31.02;;;10.80;99.90;;;;;;5080141;28;20032;-78
2021/12/24 12:03:54;;;;;;;56.10;28.05;;;10.90;99.90;;;;;;5080084;28;20020;-78
2021/12/24 12:06:23;;;;;;;55.72;26.52;;;10.90;99.90;;;;;;5076303;28;20037;-80
2021/12/24 12:08:52;;;;;;;59.90;33.53;;;10.90;99.90;;;;;;5076754;28;20026;-79
2021/12/24 12:11:23;;;;;;;59.00;27.27;;;10.90;99.90;;;;;;5080697;28;20048;-79
2021/12/24 12:14:14;;;;;;;53.23;26.90;;;10.90;99.90;;;;;;5082045;28;20059;-80
2021/12/24 12:16:39;;;;;;;50.75;27.55;;;10.90;99.90;;;;;;5082861;28;20381;-78
2021/12/24 12:19:16;;;;;;;47.63;26.48;;;11.00;99.90;;;;;;5087101;28;20028;-79
2021/12/24 12:22:17;;;;;;;57.97;27.05;;;11.00;99.90;;;;;;5079840;28;20032;-79
2021/12/24 12:24:57;;;;;;;55.78;26.02;;;11.00;99.90;;;;;;5080148;28;20025;-79
2021/12/24 12:27:39;;;;;;;45.42;25.10;;;11.00;99.90;;;;;;5084858;28;20073;-79
2021/12/24 12:30:20;;;;;;;53.45;27.67;;;11.00;99.90;;;;;;5080629;28;20532;-80
2021/12/24 12:32:47;;;;;;;49.30;25.10;;;11.00;99.90;;;;;;5082114;28;20036;-79
2021/12/24 12:35:14;;;;;;;54.65;25.25;;;11.10;99.90;;;;;;5085769;28;20070;-80
2021/12/24 12:37:53;;;;;;;50.53;26.33;;;11.00;99.90;;;;;;5088615;28;20472;-80
2021/12/24 12:40:19;;;;;;;59.97;26.67;;;11.00;99.90;;;;;;5080887;28;20595;-78
2021/12/24 12:42:56;;;;;;;50.58;23.58;;;11.00;99.90;;;;;;5084843;28;20112;-79
2021/12/24 12:45:47;;;;;;;52.05;26.35;;;11.00;99.90;;;;;;5086698;28;20395;-79
2021/12/24 12:48:25;;;;;;;54.13;25.83;;;11.00;99.90;;;;;;5080932;28;20040;-80
2021/12/24 12:50:56;;;;;;;49.88;25.73;;;10.90;99.90;;;;;;5082001;28;20028;-73
2021/12/24 12:53:22;;;;;;;57.53;25.67;;;10.80;99.90;;;;;;5083110;28;20027;-81
2021/12/24 12:56:07;;;;;;;53.45;25.95;;;10.90;99.90;;;;;;5083642;28;20391;-82
2021/12/24 12:58:33;;;;;;;49.67;24.48;;;10.90;99.90;;;;;;5081290;28;20020;-81
2021/12/24 13:01:13;;;;;;;53.33;25.33;;;10.80;99.90;;;;;;5082190;28;20032;-83
2021/12/24 13:03:57;;;;;;;51.95;24.70;;;10.80;99.90;;;;;;5084074;28;20106;-82
2021/12/24 13:06:35;;;;;;;55.58;26.08;;;10.80;99.90;;;;;;5077083;28;20040;-81
2021/12/24 13:09:04;;;;;;;60.78;25.13;;;10.80;99.90;;;;;;5083418;28;20096;-81
2021/12/24 13:11:36;;;;;;;50.83;24.42;;;10.80;99.90;;;;;;5079943;28;20033;-81
2021/12/24 13:14:02;;;;;;;48.20;23.38;;;10.90;99.90;;;;;;5080469;28;20090;-81
2021/12/24 13:16:43;;;;;;;47.05;23.45;;;10.80;99.90;;;;;;5079049;28;20024;-82
2021/12/24 13:19:25;;;;;;;47.65;23.70;;;10.90;99.90;;;;;;5077685;28;20039;-80
2021/12/24 13:24:17;;;;;;;58.33;27.10;;;10.80;99.90;;;;;;5079393;28;20044;-83
2021/12/24 13:26:45;;;;;;;61.88;27.25;;;10.80;99.90;;;;;;5081556;28;20021;-83
2021/12/24 13:29:13;;;;;;;53.92;27.70;;;10.80;99.90;;;;;;5085146;28;20111;-82
2021/12/24 13:31:40;;;;;;;54.97;25.95;;;10.80;99.90;;;;;;5080105;28;20025;-82
2021/12/24 13:34:11;;;;;;;50.63;26.77;;;10.80;99.90;;;;;;5084855;28;20036;-81
2021/12/24 13:36:37;;;;;;;62.70;28.58;;;10.80;99.90;;;;;;5082216;28;20016;-82
2021/12/24 13:39:10;;;;;;;59.53;28.75;;;10.80;99.90;;;;;;5081595;28;20119;-80
2021/12/24 13:41:37;;;;;;;55.95;28.20;;;10.70;99.90;;;;;;5080498;28;20042;-84
2021/12/24 13:44:04;;;;;;;58.58;30.50;;;10.70;99.90;;;;;;5079952;28;20048;-82
2021/12/24 13:46:33;;;;;;;63.80;29.58;;;10.70;99.90;;;;;;5082171;28;20024;-82
2021/12/24 13:56:46;;;;;;;67.88;30.58;;;10.70;99.90;;;;;;5080659;28;20135;-82
2021/12/24 13:59:19;;;;;;;67.53;33.13;;;10.70;99.90;;;;;;5080586;28;20365;-79
2021/12/24 14:01:45;;;;;;;75.50;33.72;;;10.70;99.90;;;;;;5080512;28;20059;-82
2021/12/24 14:04:14;;;;;;;73.80;34.78;;;10.60;99.90;;;;;;5080153;28;20055;-83
2021/12/24 14:06:42;;;;;;;78.85;36.22;;;10.60;99.90;;;;;;5082019;28;20040;-82
2021/12/24 14:09:20;;;;;;;74.35;36.50;;;10.60;99.90;;;;;;5086328;28;20015;-83
2021/12/24 14:11:48;;;;;;;75.45;36.45;;;10.60;99.90;;;;;;5076827;28;20040;-83
2021/12/24 14:14:22;;;;;;;70.47;35.20;;;10.60;99.90;;;;;;5085499;28;20036;-83
2021/12/24 14:20:04;;;;;;;75.13;35.60;;;10.60;99.90;;;;;;5077696;28;20096;-82
2021/12/24 14:22:32;;;;;;;78.82;39.38;;;10.60;99.90;;;;;;5078577;28;20016;-80